sensor_id;sensor_type;location;lat;lon;timestamp;P1;durP1;ratioP1;P2;durP2;ratioP2
73954;SDS011;62306;52.516;13.290;2023-05-20T00:01:04;9.70;;;3.95;;
73954;SDS011;62306;52.516;13.290;2023-05-20T00:03:31;7.00;;;3.25;;
73954;SDS011;62306;52.516;13.290;2023-05-20T00:05:58;8.13;;;3.45;;
73954;SDS011;62306;52.516;13.290;2023-05-20T00:08:25;8.73;;;3.65;;
73954;SDS011;62306;52.516;13.290;2023-05-20T00:10:52;8.80;;;3.97;;
73954;SDS011;62306;52.516;13.290;2023-05-20T00:13:20;5.93;;;3.97;;
73954;SDS011;62306;52.516;13.290;2023-05-20T00:15:48;10.27;;;4.05;;
73954;SDS011;62306;52.516;13.290;2023-05-20T00:18:15;9.60;;;4.05;;
73954;SDS011;62306;52.516;13.290;2023-05-20T00:20:42;7.75;;;3.58;;
73954;SDS011;62306;52.516;13.290;2023-05-20T00:23:09;7.00;;;3.70;;
73954;SDS011;62306;52.516;13.290;2023-05-20T00:25:36;6.55;;;3.92;;
73954;SDS011;62306;52.516;13.290;2023-05-20T00:28:03;4.05;;;3.22;;
73954;SDS011;62306;52.516;13.290;2023-05-20T00:30:32;7.97;;;3.80;;
73954;SDS011;62306;52.516;13.290;2023-05-20T00:32:59;8.95;;;4.53;;
73954;SDS011;62306;52.516;13.290;2023-05-20T00:35:26;16.23;;;4.38;;
73954;SDS011;62306;52.516;13.290;2023-05-20T00:37:53;11.43;;;3.95;;
73954;SDS011;62306;52.516;13.290;2023-05-20T00:40:20;6.82;;;3.30;;
73954;SDS011;62306;52.516;13.290;2023-05-20T00:42:47;6.90;;;3.90;;
73954;SDS011;62306;52.516;13.290;2023-05-20T00:45:14;7.95;;;4.13;;
73954;SDS011;62306;52.516;13.290;2023-05-20T00:47:43;6.55;;;4.72;;
73954;SDS011;62306;52.516;13.290;2023-05-20T00:50:10;6.75;;;4.78;;
73954;SDS011;62306;52.516;13.290;2023-05-20T00:52:37;5.55;;;3.60;;
73954;SDS011;62306;52.516;13.290;2023-05-20T00:55:05;6.07;;;3.40;;
73954;SDS011;62306;52.516;13.290;2023-05-20T00:57:33;5.60;;;3.65;;
73954;SDS011;62306;52.516;13.290;2023-05-20T01:00:00;8.15;;;3.50;;
73954;SDS011;62306;52.516;13.290;2023-05-20T01:02:27;6.55;;;3.78;;
73954;SDS011;62306;52.516;13.290;2023-05-20T01:04:56;7.35;;;4.10;;
73954;SDS011;62306;52.516;13.290;2023-05-20T01:07:23;9.68;;;3.60;;
73954;SDS011;62306;52.516;13.290;2023-05-20T01:09:51;8.30;;;3.78;;
73954;SDS011;62306;52.516;13.290;2023-05-20T01:12:22;7.00;;;4.00;;
73954;SDS011;62306;52.516;13.290;2023-05-20T01:14:55;7.65;;;3.80;;
73954;SDS011;62306;52.516;13.290;2023-05-20T01:17:29;6.07;;;3.75;;
73954;SDS011;62306;52.516;13.290;2023-05-20T01:19:58;7.55;;;4.50;;
73954;SDS011;62306;52.516;13.290;2023-05-20T01:22:27;11.75;;;4.38;;
73954;SDS011;62306;52.516;13.290;2023-05-20T01:24:54;10.30;;;4.38;;
73954;SDS011;62306;52.516;13.290;2023-05-20T01:27:22;4.75;;;3.85;;
73954;SDS011;62306;52.516;13.290;2023-05-20T01:29:49;8.90;;;4.15;;
73954;SDS011;62306;52.516;13.290;2023-05-20T01:32:18;7.80;;;4.70;;
73954;SDS011;62306;52.516;13.290;2023-05-20T01:34:47;6.75;;;4.32;;
73954;SDS011;62306;52.516;13.290;2023-05-20T01:37:15;7.43;;;4.22;;
73954;SDS011;62306;52.516;13.290;2023-05-20T01:39:45;7.32;;;4.78;;
73954;SDS011;62306;52.516;13.290;2023-05-20T01:42:13;7.03;;;4.35;;
73954;SDS011;62306;52.516;13.290;2023-05-20T01:44:41;7.95;;;4.60;;
73954;SDS011;62306;52.516;13.290;2023-05-20T01:47:08;6.93;;;4.13;;
73954;SDS011;62306;52.516;13.290;2023-05-20T01:49:35;10.23;;;4.72;;
73954;SDS011;62306;52.516;13.290;2023-05-20T01:52:02;7.38;;;3.88;;
73954;SDS011;62306;52.516;13.290;2023-05-20T01:54:30;7.45;;;4.65;;
73954;SDS011;62306;52.516;13.290;2023-05-20T01:56:58;10.75;;;4.57;;
73954;SDS011;62306;52.516;13.290;2023-05-20T01:59:25;5.38;;;4.20;;
73954;SDS011;62306;52.516;13.290;2023-05-20T02:01:52;7.25;;;4.43;;
73954;SDS011;62306;52.516;13.290;2023-05-20T02:04:19;11.43;;;5.22;;
73954;SDS011;62306;52.516;13.290;2023-05-20T02:06:46;11.13;;;4.32;;
73954;SDS011;62306;52.516;13.290;2023-05-20T02:09:13;7.30;;;4.60;;
73954;SDS011;62306;52.516;13.290;2023-05-20T02:11:40;8.90;;;4.82;;
73954;SDS011;62306;52.516;13.290;2023-05-20T02:14:08;13.02;;;4.70;;
73954;SDS011;62306;52.516;13.290;2023-05-20T02:16:35;10.20;;;4.88;;
73954;SDS011;62306;52.516;13.290;2023-05-20T02:19:02;8.10;;;4.80;;
73954;SDS011;62306;52.516;13.290;2023-05-20T02:21:29;11.00;;;5.03;;
73954;SDS011;62306;52.516;13.290;2023-05-20T02:23:56;8.20;;;4.78;;
73954;SDS011;62306;52.516;13.290;2023-05-20T02:26:23;10.38;;;4.70;;
73954;SDS011;62306;52.516;13.290;2023-05-20T02:28:50;9.15;;;4.57;;
73954;SDS011;62306;52.516;13.290;2023-05-20T02:31:18;8.90;;;4.68;;
73954;SDS011;62306;52.516;13.290;2023-05-20T02:33:45;11.65;;;4.78;;
73954;SDS011;62306;52.516;13.290;2023-05-20T02:36:12;9.45;;;4.65;;
73954;SDS011;62306;52.516;13.290;2023-05-20T02:38:39;7.68;;;4.63;;
73954;SDS011;62306;52.516;13.290;2023-05-20T02:41:06;8.80;;;4.68;;
73954;SDS011;62306;52.516;13.290;2023-05-20T02:43:33;9.55;;;5.10;;
73954;SDS011;62306;52.516;13.290;2023-05-20T02:46:00;10.95;;;4.90;;
73954;SDS011;62306;52.516;13.290;2023-05-20T02:48:29;10.18;;;5.05;;
73954;SDS011;62306;52.516;13.290;2023-05-20T02:50:57;6.03;;;4.70;;
73954;SDS011;62306;52.516;13.290;2023-05-20T02:53:24;8.75;;;4.95;;
73954;SDS011;62306;52.516;13.290;2023-05-20T02:55:51;11.88;;;4.72;;
73954;SDS011;62306;52.516;13.290;2023-05-20T02:58:18;9.80;;;4.68;;
73954;SDS011;62306;52.516;13.290;2023-05-20T03:00:50;8.43;;;4.28;;
73954;SDS011;62306;52.516;13.290;2023-05-20T03:03:17;9.18;;;4.30;;
73954;SDS011;62306;52.516;13.290;2023-05-20T03:05:45;9.27;;;4.70;;
73954;SDS011;62306;52.516;13.290;2023-05-20T03:08:12;8.10;;;4.45;;
73954;SDS011;62306;52.516;13.290;2023-05-20T03:10:39;7.78;;;4.25;;
73954;SDS011;62306;52.516;13.290;2023-05-20T03:13:06;9.23;;;4.25;;
73954;SDS011;62306;52.516;13.290;2023-05-20T03:15:35;9.52;;;4.40;;
73954;SDS011;62306;52.516;13.290;2023-05-20T03:18:02;12.27;;;4.90;;
73954;SDS011;62306;52.516;13.290;2023-05-20T03:20:30;7.18;;;5.00;;
73954;SDS011;62306;52.516;13.290;2023-05-20T03:22:59;9.98;;;5.15;;
73954;SDS011;62306;52.516;13.290;2023-05-20T03:25:26;8.95;;;4.65;;
73954;SDS011;62306;52.516;13.290;2023-05-20T03:27:53;7.03;;;4.70;;
73954;SDS011;62306;52.516;13.290;2023-05-20T03:30:20;11.50;;;4.88;;
73954;SDS011;62306;52.516;13.290;2023-05-20T03:32:47;6.78;;;4.97;;
73954;SDS011;62306;52.516;13.290;2023-05-20T03:35:14;10.27;;;5.10;;
73954;SDS011;62306;52.516;13.290;2023-05-20T03:37:42;10.35;;;5.07;;
73954;SDS011;62306;52.516;13.290;2023-05-20T03:40:10;11.88;;;5.22;;
73954;SDS011;62306;52.516;13.290;2023-05-20T03:42:38;9.90;;;4.72;;
73954;SDS011;62306;52.516;13.290;2023-05-20T03:45:05;6.90;;;4.35;;
73954;SDS011;62306;52.516;13.290;2023-05-20T03:47:33;8.98;;;4.97;;
73954;SDS011;62306;52.516;13.290;2023-05-20T03:50:00;11.38;;;4.63;;
73954;SDS011;62306;52.516;13.290;2023-05-20T03:52:27;7.15;;;4.75;;
73954;SDS011;62306;52.516;13.290;2023-05-20T03:54:54;11.77;;;5.28;;
73954;SDS011;62306;52.516;13.290;2023-05-20T03:57:22;6.93;;;4.80;;
73954;SDS011;62306;52.516;13.290;2023-05-20T03:59:49;9.60;;;5.05;;
73954;SDS011;62306;52.516;13.290;2023-05-20T04:02:16;8.88;;;5.05;;
73954;SDS011;62306;52.516;13.290;2023-05-20T04:04:43;8.15;;;5.00;;
73954;SDS011;62306;52.516;13.290;2023-05-20T04:07:10;12.95;;;4.38;;
73954;SDS011;62306;52.516;13.290;2023-05-20T04:09:37;8.32;;;5.20;;
73954;SDS011;62306;52.516;13.290;2023-05-20T04:12:04;11.15;;;5.45;;
73954;SDS011;62306;52.516;13.290;2023-05-20T04:14:33;9.85;;;4.88;;
73954;SDS011;62306;52.516;13.290;2023-05-20T04:17:01;14.15;;;4.75;;
73954;SDS011;62306;52.516;13.290;2023-05-20T04:19:28;9.93;;;4.80;;
73954;SDS011;62306;52.516;13.290;2023-05-20T04:21:55;12.00;;;5.28;;
73954;SDS011;62306;52.516;13.290;2023-05-20T04:24:22;9.93;;;4.95;;
73954;SDS011;62306;52.516;13.290;2023-05-20T04:26:51;9.10;;;4.55;;
73954;SDS011;62306;52.516;13.290;2023-05-20T04:29:18;10.95;;;5.45;;
73954;SDS011;62306;52.516;13.290;2023-05-20T04:31:48;13.27;;;5.20;;
73954;SDS011;62306;52.516;13.290;2023-05-20T04:34:16;6.80;;;4.88;;
73954;SDS011;62306;52.516;13.290;2023-05-20T04:36:44;8.07;;;4.80;;
73954;SDS011;62306;52.516;13.290;2023-05-20T04:39:11;14.45;;;5.55;;
73954;SDS011;62306;52.516;13.290;2023-05-20T04:41:39;9.38;;;5.07;;
73954;SDS011;62306;52.516;13.290;2023-05-20T04:44:06;10.43;;;5.47;;
73954;SDS011;62306;52.516;13.290;2023-05-20T04:46:33;9.18;;;5.05;;
73954;SDS011;62306;52.516;13.290;2023-05-20T04:49:01;8.55;;;5.05;;
73954;SDS011;62306;52.516;13.290;2023-05-20T04:51:30;9.40;;;5.03;;
73954;SDS011;62306;52.516;13.290;2023-05-20T04:53:58;8.95;;;4.85;;
73954;SDS011;62306;52.516;13.290;2023-05-20T04:56:25;10.57;;;5.57;;
73954;SDS011;62306;52.516;13.290;2023-05-20T04:58:52;13.00;;;5.45;;
73954;SDS011;62306;52.516;13.290;2023-05-20T05:01:20;13.43;;;5.28;;
73954;SDS011;62306;52.516;13.290;2023-05-20T05:03:47;17.10;;;5.97;;
73954;SDS011;62306;52.516;13.290;2023-05-20T05:06:15;9.77;;;5.60;;
73954;SDS011;62306;52.516;13.290;2023-05-20T05:08:42;13.80;;;5.80;;
73954;SDS011;62306;52.516;13.290;2023-05-20T05:11:09;11.43;;;5.78;;
73954;SDS011;62306;52.516;13.290;2023-05-20T05:13:36;9.65;;;5.35;;
73954;SDS011;62306;52.516;13.290;2023-05-20T05:16:03;11.52;;;5.63;;
73954;SDS011;62306;52.516;13.290;2023-05-20T05:18:31;8.82;;;6.15;;
73954;SDS011;62306;52.516;13.290;2023-05-20T05:20:59;13.23;;;5.85;;
73954;SDS011;62306;52.516;13.290;2023-05-20T05:23:28;11.25;;;5.60;;
73954;SDS011;62306;52.516;13.290;2023-05-20T05:25:55;8.57;;;5.03;;
73954;SDS011;62306;52.516;13.290;2023-05-20T05:28:22;10.32;;;5.68;;
73954;SDS011;62306;52.516;13.290;2023-05-20T05:30:49;15.10;;;5.65;;
73954;SDS011;62306;52.516;13.290;2023-05-20T05:33:16;9.60;;;5.32;;
73954;SDS011;62306;52.516;13.290;2023-05-20T05:35:44;8.38;;;5.50;;
73954;SDS011;62306;52.516;13.290;2023-05-20T05:38:11;14.75;;;6.68;;
73954;SDS011;62306;52.516;13.290;2023-05-20T05:40:39;15.63;;;5.75;;
73954;SDS011;62306;52.516;13.290;2023-05-20T05:43:07;12.20;;;5.30;;
73954;SDS011;62306;52.516;13.290;2023-05-20T05:45:33;8.65;;;5.50;;
73954;SDS011;62306;52.516;13.290;2023-05-20T05:48:00;13.18;;;6.28;;
73954;SDS011;62306;52.516;13.290;2023-05-20T05:50:27;10.70;;;6.07;;
73954;SDS011;62306;52.516;13.290;2023-05-20T05:52:54;10.45;;;5.90;;
73954;SDS011;62306;52.516;13.290;2023-05-20T05:55:21;13.52;;;5.45;;
73954;SDS011;62306;52.516;13.290;2023-05-20T05:57:50;11.05;;;6.90;;
73954;SDS011;62306;52.516;13.290;2023-05-20T06:00:17;9.10;;;5.40;;
73954;SDS011;62306;52.516;13.290;2023-05-20T06:02:44;13.32;;;5.88;;
73954;SDS011;62306;52.516;13.290;2023-05-20T06:05:11;12.07;;;6.55;;
73954;SDS011;62306;52.516;13.290;2023-05-20T06:07:38;11.73;;;6.63;;
73954;SDS011;62306;52.516;13.290;2023-05-20T06:10:05;17.40;;;6.50;;
73954;SDS011;62306;52.516;13.290;2023-05-20T06:12:33;17.02;;;6.75;;
73954;SDS011;62306;52.516;13.290;2023-05-20T06:15:01;11.40;;;5.90;;
73954;SDS011;62306;52.516;13.290;2023-05-20T06:17:28;12.15;;;6.38;;
73954;SDS011;62306;52.516;13.290;2023-05-20T06:19:55;8.93;;;5.63;;
73954;SDS011;62306;52.516;13.290;2023-05-20T06:22:22;15.55;;;6.47;;
73954;SDS011;62306;52.516;13.290;2023-05-20T06:24:49;13.15;;;6.88;;
73954;SDS011;62306;52.516;13.290;2023-05-20T06:27:19;9.55;;;6.13;;
73954;SDS011;62306;52.516;13.290;2023-05-20T06:29:46;15.60;;;7.13;;
73954;SDS011;62306;52.516;13.290;2023-05-20T06:32:14;16.13;;;6.97;;
73954;SDS011;62306;52.516;13.290;2023-05-20T06:34:41;19.17;;;6.35;;
73954;SDS011;62306;52.516;13.290;2023-05-20T06:37:08;12.98;;;6.72;;
73954;SDS011;62306;52.516;13.290;2023-05-20T06:39:35;13.85;;;6.85;;
73954;SDS011;62306;52.516;13.290;2023-05-20T06:42:02;14.75;;;6.57;;
73954;SDS011;62306;52.516;13.290;2023-05-20T06:44:29;11.05;;;6.68;;
73954;SDS011;62306;52.516;13.290;2023-05-20T06:46:56;11.65;;;6.70;;
73954;SDS011;62306;52.516;13.290;2023-05-20T06:49:25;11.05;;;7.15;;
73954;SDS011;62306;52.516;13.290;2023-05-20T06:51:52;11.48;;;6.30;;
73954;SDS011;62306;52.516;13.290;2023-05-20T06:54:19;11.07;;;6.70;;
73954;SDS011;62306;52.516;13.290;2023-05-20T06:56:46;11.35;;;6.68;;
73954;SDS011;62306;52.516;13.290;2023-05-20T06:59:13;18.13;;;6.97;;
73954;SDS011;62306;52.516;13.290;2023-05-20T07:01:40;10.10;;;6.63;;
73954;SDS011;62306;52.516;13.290;2023-05-20T07:04:07;14.43;;;7.20;;
73954;SDS011;62306;52.516;13.290;2023-05-20T07:06:36;10.80;;;6.55;;
73954;SDS011;62306;52.516;13.290;2023-05-20T07:09:03;14.60;;;6.30;;
73954;SDS011;62306;52.516;13.290;2023-05-20T07:11:30;10.90;;;6.40;;
73954;SDS011;62306;52.516;13.290;2023-05-20T07:13:57;13.38;;;7.15;;
73954;SDS011;62306;52.516;13.290;2023-05-20T07:16:24;16.98;;;6.97;;
73954;SDS011;62306;52.516;13.290;2023-05-20T07:18:51;17.33;;;6.93;;
73954;SDS011;62306;52.516;13.290;2023-05-20T07:21:18;12.73;;;6.65;;
73954;SDS011;62306;52.516;13.290;2023-05-20T07:23:46;12.15;;;6.65;;
73954;SDS011;62306;52.516;13.290;2023-05-20T07:26:13;12.02;;;6.15;;
73954;SDS011;62306;52.516;13.290;2023-05-20T07:28:40;11.57;;;6.97;;
73954;SDS011;62306;52.516;13.290;2023-05-20T07:31:08;13.80;;;6.78;;
73954;SDS011;62306;52.516;13.290;2023-05-20T07:33:35;16.83;;;6.28;;
73954;SDS011;62306;52.516;13.290;2023-05-20T07:36:02;11.85;;;6.68;;
73954;SDS011;62306;52.516;13.290;2023-05-20T07:38:29;12.10;;;6.22;;
73954;SDS011;62306;52.516;13.290;2023-05-20T07:40:58;11.00;;;6.35;;
73954;SDS011;62306;52.516;13.290;2023-05-20T07:43:25;15.30;;;7.85;;
73954;SDS011;62306;52.516;13.290;2023-05-20T07:45:52;11.00;;;6.32;;
73954;SDS011;62306;52.516;13.290;2023-05-20T07:48:19;8.63;;;6.18;;
73954;SDS011;62306;52.516;13.290;2023-05-20T07:50:46;10.35;;;6.63;;
73954;SDS011;62306;52.516;13.290;2023-05-20T07:53:13;10.10;;;6.45;;
73954;SDS011;62306;52.516;13.290;2023-05-20T07:55:40;14.23;;;6.53;;
73954;SDS011;62306;52.516;13.290;2023-05-20T07:58:08;11.30;;;6.80;;
73954;SDS011;62306;52.516;13.290;2023-05-20T08:00:35;12.07;;;6.50;;
73954;SDS011;62306;52.516;13.290;2023-05-20T08:03:02;9.50;;;5.93;;
73954;SDS011;62306;52.516;13.290;2023-05-20T08:05:29;10.50;;;6.15;;
73954;SDS011;62306;52.516;13.290;2023-05-20T08:07:56;9.77;;;5.82;;
73954;SDS011;62306;52.516;13.290;2023-05-20T08:10:22;12.82;;;6.03;;
73954;SDS011;62306;52.516;13.290;2023-05-20T08:12:49;9.32;;;6.00;;
73954;SDS011;62306;52.516;13.290;2023-05-20T08:15:17;13.77;;;5.57;;
73954;SDS011;62306;52.516;13.290;2023-05-20T08:17:44;11.68;;;6.72;;
73954;SDS011;62306;52.516;13.290;2023-05-20T08:20:11;9.50;;;6.05;;
73954;SDS011;62306;52.516;13.290;2023-05-20T08:22:40;11.32;;;6.15;;
73954;SDS011;62306;52.516;13.290;2023-05-20T08:25:07;14.32;;;6.07;;
73954;SDS011;62306;52.516;13.290;2023-05-20T08:27:35;12.13;;;6.43;;
73954;SDS011;62306;52.516;13.290;2023-05-20T08:30:02;12.45;;;7.03;;
73954;SDS011;62306;52.516;13.290;2023-05-20T08:32:30;11.38;;;6.55;;
73954;SDS011;62306;52.516;13.290;2023-05-20T08:34:57;9.48;;;5.82;;
73954;SDS011;62306;52.516;13.290;2023-05-20T08:37:25;8.75;;;6.10;;
73954;SDS011;62306;52.516;13.290;2023-05-20T08:39:53;9.15;;;6.35;;
73954;SDS011;62306;52.516;13.290;2023-05-20T08:42:20;9.77;;;5.55;;
73954;SDS011;62306;52.516;13.290;2023-05-20T08:44:49;13.82;;;5.95;;
73954;SDS011;62306;52.516;13.290;2023-05-20T08:47:18;9.75;;;5.80;;
73954;SDS011;62306;52.516;13.290;2023-05-20T08:49:47;9.98;;;5.15;;
73954;SDS011;62306;52.516;13.290;2023-05-20T08:52:14;8.65;;;6.03;;
73954;SDS011;62306;52.516;13.290;2023-05-20T08:54:43;7.97;;;5.65;;
73954;SDS011;62306;52.516;13.290;2023-05-20T08:57:11;9.38;;;5.78;;
73954;SDS011;62306;52.516;13.290;2023-05-20T08:59:39;11.05;;;5.60;;
73954;SDS011;62306;52.516;13.290;2023-05-20T09:02:08;7.63;;;5.40;;
73954;SDS011;62306;52.516;13.290;2023-05-20T09:04:35;11.52;;;5.82;;
73954;SDS011;62306;52.516;13.290;2023-05-20T09:07:03;9.18;;;5.70;;
73954;SDS011;62306;52.516;13.290;2023-05-20T09:09:31;16.40;;;5.93;;
73954;SDS011;62306;52.516;13.290;2023-05-20T09:11:59;11.98;;;6.22;;
73954;SDS011;62306;52.516;13.290;2023-05-20T09:14:27;16.30;;;5.53;;
73954;SDS011;62306;52.516;13.290;2023-05-20T09:16:54;9.38;;;6.03;;
73954;SDS011;62306;52.516;13.290;2023-05-20T09:19:21;13.05;;;6.45;;
73954;SDS011;62306;52.516;13.290;2023-05-20T09:21:51;10.07;;;6.43;;
73954;SDS011;62306;52.516;13.290;2023-05-20T09:24:21;9.65;;;6.18;;
73954;SDS011;62306;52.516;13.290;2023-05-20T09:26:49;10.02;;;6.05;;
73954;SDS011;62306;52.516;13.290;2023-05-20T09:29:16;10.45;;;6.40;;
73954;SDS011;62306;52.516;13.290;2023-05-20T09:31:45;9.75;;;5.93;;
73954;SDS011;62306;52.516;13.290;2023-05-20T09:34:12;9.13;;;5.88;;
73954;SDS011;62306;52.516;13.290;2023-05-20T09:36:40;9.18;;;5.63;;
73954;SDS011;62306;52.516;13.290;2023-05-20T09:39:10;10.88;;;6.63;;
73954;SDS011;62306;52.516;13.290;2023-05-20T09:41:45;10.35;;;6.22;;
73954;SDS011;62306;52.516;13.290;2023-05-20T09:44:17;11.30;;;6.70;;
73954;SDS011;62306;52.516;13.290;2023-05-20T09:46:46;10.35;;;6.30;;
73954;SDS011;62306;52.516;13.290;2023-05-20T09:49:16;13.18;;;6.32;;
73954;SDS011;62306;52.516;13.290;2023-05-20T09:51:46;14.02;;;6.18;;
73954;SDS011;62306;52.516;13.290;2023-05-20T09:54:15;16.58;;;6.30;;
73954;SDS011;62306;52.516;13.290;2023-05-20T09:56:46;14.00;;;9.40;;
73954;SDS011;62306;52.516;13.290;2023-05-20T09:59:14;12.95;;;6.60;;
73954;SDS011;62306;52.516;13.290;2023-05-20T10:01:41;10.65;;;7.07;;
73954;SDS011;62306;52.516;13.290;2023-05-20T10:04:09;10.98;;;7.20;;
73954;SDS011;62306;52.516;13.290;2023-05-20T10:09:42;14.68;;;8.02;;
73954;SDS011;62306;52.516;13.290;2023-05-20T10:15:23;12.38;;;7.93;;
73954;SDS011;62306;52.516;13.290;2023-05-20T10:17:57;13.20;;;9.30;;
73954;SDS011;62306;52.516;13.290;2023-05-20T10:20:31;19.80;;;8.65;;
73954;SDS011;62306;52.516;13.290;2023-05-20T10:22:58;14.95;;;8.52;;
73954;SDS011;62306;52.516;13.290;2023-05-20T10:25:25;14.95;;;8.65;;
73954;SDS011;62306;52.516;13.290;2023-05-20T10:28:04;12.95;;;7.45;;
73954;SDS011;62306;52.516;13.290;2023-05-20T10:30:33;10.88;;;7.85;;
73954;SDS011;62306;52.516;13.290;2023-05-20T10:33:02;11.50;;;8.13;;
73954;SDS011;62306;52.516;13.290;2023-05-20T10:35:30;12.35;;;8.73;;
73954;SDS011;62306;52.516;13.290;2023-05-20T10:38:06;14.70;;;8.63;;
73954;SDS011;62306;52.516;13.290;2023-05-20T10:40:35;14.18;;;7.72;;
73954;SDS011;62306;52.516;13.290;2023-05-20T10:43:10;15.73;;;8.25;;
73954;SDS011;62306;52.516;13.290;2023-05-20T10:45:47;15.15;;;8.18;;
73954;SDS011;62306;52.516;13.290;2023-05-20T10:48:24;14.98;;;8.13;;
73954;SDS011;62306;52.516;13.290;2023-05-20T10:50:53;12.80;;;8.02;;
73954;SDS011;62306;52.516;13.290;2023-05-20T10:53:22;14.57;;;8.48;;
73954;SDS011;62306;52.516;13.290;2023-05-20T10:55:50;19.95;;;9.13;;
73954;SDS011;62306;52.516;13.290;2023-05-20T10:58:20;28.55;;;9.05;;
73954;SDS011;62306;52.516;13.290;2023-05-20T11:00:47;9.65;;;7.40;;
73954;SDS011;62306;52.516;13.290;2023-05-20T11:03:15;12.32;;;8.63;;
73954;SDS011;62306;52.516;13.290;2023-05-20T11:05:44;13.40;;;8.18;;
73954;SDS011;62306;52.516;13.290;2023-05-20T11:08:11;16.98;;;8.85;;
73954;SDS011;62306;52.516;13.290;2023-05-20T11:10:38;16.45;;;7.82;;
73954;SDS011;62306;52.516;13.290;2023-05-20T11:13:06;13.13;;;7.45;;
73954;SDS011;62306;52.516;13.290;2023-05-20T11:15:35;16.63;;;8.13;;
73954;SDS011;62306;52.516;13.290;2023-05-20T11:18:02;16.60;;;9.23;;
73954;SDS011;62306;52.516;13.290;2023-05-20T11:20:30;12.93;;;8.90;;
73954;SDS011;62306;52.516;13.290;2023-05-20T11:22:59;13.32;;;8.48;;
73954;SDS011;62306;52.516;13.290;2023-05-20T11:25:27;16.38;;;9.55;;
73954;SDS011;62306;52.516;13.290;2023-05-20T11:27:54;13.43;;;8.98;;
73954;SDS011;62306;52.516;13.290;2023-05-20T11:30:21;13.75;;;9.38;;
73954;SDS011;62306;52.516;13.290;2023-05-20T11:32:57;13.35;;;8.55;;
73954;SDS011;62306;52.516;13.290;2023-05-20T11:35:25;14.55;;;9.40;;
73954;SDS011;62306;52.516;13.290;2023-05-20T11:37:54;19.35;;;8.77;;
73954;SDS011;62306;52.516;13.290;2023-05-20T11:40:22;16.55;;;8.88;;
73954;SDS011;62306;52.516;13.290;2023-05-20T11:42:52;15.73;;;8.50;;
73954;SDS011;62306;52.516;13.290;2023-05-20T11:45:20;14.63;;;7.90;;
73954;SDS011;62306;52.516;13.290;2023-05-20T11:47:58;13.93;;;8.15;;
73954;SDS011;62306;52.516;13.290;2023-05-20T11:50:26;16.17;;;8.25;;
73954;SDS011;62306;52.516;13.290;2023-05-20T11:52:55;14.98;;;9.65;;
73954;SDS011;62306;52.516;13.290;2023-05-20T11:55:24;11.90;;;8.93;;
73954;SDS011;62306;52.516;13.290;2023-05-20T11:57:51;11.48;;;8.52;;
73954;SDS011;62306;52.516;13.290;2023-05-20T12:00:18;15.52;;;7.97;;
73954;SDS011;62306;52.516;13.290;2023-05-20T12:02:45;15.75;;;7.97;;
73954;SDS011;62306;52.516;13.290;2023-05-20T12:05:14;12.82;;;7.97;;
73954;SDS011;62306;52.516;13.290;2023-05-20T12:07:41;14.45;;;9.13;;
73954;SDS011;62306;52.516;13.290;2023-05-20T12:10:08;12.23;;;7.53;;
73954;SDS011;62306;52.516;13.290;2023-05-20T12:12:35;13.50;;;8.82;;
73954;SDS011;62306;52.516;13.290;2023-05-20T12:15:02;13.93;;;9.00;;
73954;SDS011;62306;52.516;13.290;2023-05-20T12:17:30;14.00;;;8.38;;
73954;SDS011;62306;52.516;13.290;2023-05-20T12:19:57;13.50;;;8.23;;
73954;SDS011;62306;52.516;13.290;2023-05-20T12:22:26;12.93;;;7.78;;
73954;SDS011;62306;52.516;13.290;2023-05-20T12:24:52;11.40;;;8.13;;
73954;SDS011;62306;52.516;13.290;2023-05-20T12:27:19;13.95;;;8.48;;
73954;SDS011;62306;52.516;13.290;2023-05-20T12:29:46;14.05;;;8.70;;
73954;SDS011;62306;52.516;13.290;2023-05-20T12:32:13;17.33;;;8.63;;
73954;SDS011;62306;52.516;13.290;2023-05-20T12:34:40;11.90;;;8.23;;
73954;SDS011;62306;52.516;13.290;2023-05-20T12:37:07;14.20;;;10.07;;
73954;SDS011;62306;52.516;13.290;2023-05-20T12:39:35;13.35;;;7.72;;
73954;SDS011;62306;52.516;13.290;2023-05-20T12:42:02;11.80;;;8.70;;
73954;SDS011;62306;52.516;13.290;2023-05-20T12:44:29;13.55;;;8.85;;
73954;SDS011;62306;52.516;13.290;2023-05-20T12:46:56;17.88;;;9.13;;
73954;SDS011;62306;52.516;13.290;2023-05-20T12:49:23;14.88;;;9.13;;
73954;SDS011;62306;52.516;13.290;2023-05-20T12:51:50;13.20;;;8.18;;
73954;SDS011;62306;52.516;13.290;2023-05-20T12:54:18;14.68;;;8.65;;
73954;SDS011;62306;52.516;13.290;2023-05-20T12:56:47;13.20;;;9.10;;
73954;SDS011;62306;52.516;13.290;2023-05-20T12:59:14;14.95;;;8.43;;
73954;SDS011;62306;52.516;13.290;2023-05-20T13:01:41;14.05;;;8.57;;
73954;SDS011;62306;52.516;13.290;2023-05-20T13:04:07;14.00;;;8.48;;
73954;SDS011;62306;52.516;13.290;2023-05-20T13:06:36;14.57;;;9.23;;
73954;SDS011;62306;52.516;13.290;2023-05-20T13:09:03;16.05;;;8.73;;
73954;SDS011;62306;52.516;13.290;2023-05-20T13:11:30;15.98;;;8.65;;
73954;SDS011;62306;52.516;13.290;2023-05-20T13:13:58;13.52;;;8.40;;
73954;SDS011;62306;52.516;13.290;2023-05-20T13:16:25;17.48;;;8.95;;
73954;SDS011;62306;52.516;13.290;2023-05-20T13:18:52;11.27;;;8.50;;
73954;SDS011;62306;52.516;13.290;2023-05-20T13:21:19;14.38;;;8.98;;
73954;SDS011;62306;52.516;13.290;2023-05-20T13:23:46;13.75;;;8.18;;
73954;SDS011;62306;52.516;13.290;2023-05-20T13:26:13;15.20;;;8.68;;
73954;SDS011;62306;52.516;13.290;2023-05-20T13:28:40;18.58;;;8.40;;
73954;SDS011;62306;52.516;13.290;2023-05-20T13:31:08;14.25;;;8.45;;
73954;SDS011;62306;52.516;13.290;2023-05-20T13:33:35;13.63;;;9.02;;
73954;SDS011;62306;52.516;13.290;2023-05-20T13:36:02;13.55;;;8.88;;
73954;SDS011;62306;52.516;13.290;2023-05-20T13:38:29;13.50;;;9.38;;
73954;SDS011;62306;52.516;13.290;2023-05-20T13:40:56;13.45;;;8.73;;
73954;SDS011;62306;52.516;13.290;2023-05-20T13:43:23;13.27;;;7.55;;
73954;SDS011;62306;52.516;13.290;2023-05-20T13:45:51;12.07;;;8.48;;
73954;SDS011;62306;52.516;13.290;2023-05-20T13:48:19;16.45;;;9.50;;
73954;SDS011;62306;52.516;13.290;2023-05-20T13:50:46;12.68;;;7.80;;
73954;SDS011;62306;52.516;13.290;2023-05-20T13:53:13;11.50;;;8.07;;
73954;SDS011;62306;52.516;13.290;2023-05-20T13:55:40;13.63;;;9.25;;
73954;SDS011;62306;52.516;13.290;2023-05-20T13:58:07;11.50;;;7.43;;
73954;SDS011;62306;52.516;13.290;2023-05-20T14:00:34;17.58;;;9.32;;
73954;SDS011;62306;52.516;13.290;2023-05-20T14:03:02;11.13;;;7.40;;
73954;SDS011;62306;52.516;13.290;2023-05-20T14:05:30;13.38;;;8.00;;
73954;SDS011;62306;52.516;13.290;2023-05-20T14:07:57;11.00;;;8.38;;
73954;SDS011;62306;52.516;13.290;2023-05-20T14:10:24;13.23;;;8.48;;
73954;SDS011;62306;52.516;13.290;2023-05-20T14:12:52;15.23;;;9.50;;
73954;SDS011;62306;52.516;13.290;2023-05-20T14:15:19;12.10;;;7.97;;
73954;SDS011;62306;52.516;13.290;2023-05-20T14:17:46;14.15;;;8.95;;
73954;SDS011;62306;52.516;13.290;2023-05-20T14:20:13;14.85;;;8.27;;
73954;SDS011;62306;52.516;13.290;2023-05-20T14:22:42;11.93;;;8.02;;
73954;SDS011;62306;52.516;13.290;2023-05-20T14:25:09;12.13;;;8.02;;
73954;SDS011;62306;52.516;13.290;2023-05-20T14:27:36;11.50;;;7.63;;
73954;SDS011;62306;52.516;13.290;2023-05-20T14:30:03;12.00;;;7.63;;
73954;SDS011;62306;52.516;13.290;2023-05-20T14:32:31;15.07;;;8.25;;
73954;SDS011;62306;52.516;13.290;2023-05-20T14:34:58;12.55;;;7.47;;